Map

Track Data

SID SEASON NUMBER BASIN SUBBASIN NAME ISO_TIME NATURE LAT LON WMO_WIND WMO_PRES WMO_AGENCY TRACK_TYPE DIST2LAND LANDFALL IFLAG USA_AGENCY USA_ATCF_ID USA_LAT USA_LON USA_RECORD USA_STATUS USA_WIND USA_PRES USA_SSHS USA_R34_NE USA_R34_SE USA_R34_SW USA_R34_NW USA_R50_NE USA_R50_SE USA_R50_SW USA_R50_NW USA_R64_NE USA_R64_SE USA_R64_SW USA_R64_NW USA_POCI USA_ROCI USA_RMW USA_EYE TOKYO_LAT TOKYO_LON TOKYO_GRADE TOKYO_WIND TOKYO_PRES TOKYO_R50_DIR TOKYO_R50_LONG TOKYO_R50_SHORT TOKYO_R30_DIR TOKYO_R30_LONG TOKYO_R30_SHORT TOKYO_LAND CMA_LAT CMA_LON CMA_CAT CMA_WIND CMA_PRES HKO_LAT HKO_LON HKO_CAT HKO_WIND HKO_PRES NEWDELHI_LAT NEWDELHI_LON NEWDELHI_GRADE NEWDELHI_WIND NEWDELHI_PRES NEWDELHI_CI NEWDELHI_DP NEWDELHI_POCI REUNION_LAT REUNION_LON REUNION_TYPE REUNION_WIND REUNION_PRES REUNION_TNUM REUNION_CI REUNION_RMW REUNION_R34_NE REUNION_R34_SE REUNION_R34_SW REUNION_R34_NW REUNION_R50_NE REUNION_R50_SE REUNION_R50_SW REUNION_R50_NW REUNION_R64_NE REUNION_R64_SE REUNION_R64_SW REUNION_R64_NW BOM_LAT BOM_LON BOM_TYPE BOM_WIND BOM_PRES BOM_TNUM BOM_CI BOM_RMW BOM_R34_NE BOM_R34_SE BOM_R34_SW BOM_R34_NW BOM_R50_NE BOM_R50_SE BOM_R50_SW BOM_R50_NW BOM_R64_NE BOM_R64_SE BOM_R64_SW BOM_R64_NW BOM_ROCI BOM_POCI BOM_EYE BOM_POS_METHOD BOM_PRES_METHOD NADI_LAT NADI_LON NADI_CAT NADI_WIND NADI_PRES WELLINGTON_LAT WELLINGTON_LON WELLINGTON_WIND WELLINGTON_PRES DS824_LAT DS824_LON DS824_STAGE DS824_WIND DS824_PRES TD9636_LAT TD9636_LON TD9636_STAGE TD9636_WIND TD9636_PRES TD9635_LAT TD9635_LON TD9635_WIND TD9635_PRES TD9635_ROCI NEUMANN_LAT NEUMANN_LON NEUMANN_CLASS NEUMANN_WIND NEUMANN_PRES MLC_LAT MLC_LON MLC_CLASS MLC_WIND MLC_PRES USA_GUST BOM_GUST BOM_GUST_PER REUNION_GUST REUNION_GUST_PER USA_SEAHGT USA_SEARAD_NE USA_SEARAD_SE USA_SEARAD_SW USA_SEARAD_NW STORM_SPEED STORM_DIR
1995220N15256 1995 44 EP MM FLOSSIE 1995-08-07 12:00:00 TS 15.2000 -104.200 30 1001 hurdat_epa main 352 352 O_____________ hurdat_epa EP071995 15.2000 -104.200 TD 30 1001 -1 5 280
1995220N15256 1995 44 EP MM FLOSSIE 1995-08-07 15:00:00 TS 15.2426 -104.450 main 359 352 P_____________ EP071995 15.2426 -104.450 TD 30 1001 -1 5 282
1995220N15256 1995 44 EP MM FLOSSIE 1995-08-07 18:00:00 TS 15.3000 -104.700 30 1001 hurdat_epa main 359 357 O_____________ hurdat_epa EP071995 15.3000 -104.700 TD 30 1001 -1 5 286
1995220N15256 1995 44 EP MM FLOSSIE 1995-08-07 21:00:00 TS 15.3850 -104.950 main 361 356 P_____________ EP071995 15.3850 -104.950 TD 30 1000 -1 5 293
1995220N15256 1995 44 EP MM FLOSSIE 1995-08-08 00:00:00 TS 15.5000 -105.200 30 1000 hurdat_epa main 361 357 O_____________ hurdat_epa EP071995 15.5000 -105.200 TD 30 1000 -1 6 297
1995220N15256 1995 44 EP MM FLOSSIE 1995-08-08 03:00:00 TS 15.6350 -105.465 main 369 357 P_____________ EP071995 15.6350 -105.465 TD 30 999 -1 6 302
1995220N15256 1995 44 EP MM FLOSSIE 1995-08-08 06:00:00 TS 15.8000 -105.700 30 999 hurdat_epa main 364 354 O_____________ hurdat_epa EP071995 15.8000 -105.700 TD 30 999 -1 5 313
1995220N15256 1995 44 EP MM FLOSSIE 1995-08-08 09:00:00 TS 15.9925 -105.865 main 362 354 P_____________ EP071995 15.9925 -105.865 TD 30 998 -1 5 324
1995220N15256 1995 44 EP MM FLOSSIE 1995-08-08 12:00:00 TS 16.2000 -106.000 30 998 hurdat_epa main 354 342 O_____________ hurdat_epa EP071995 16.2000 -106.000 TD 30 998 -1 5 325
1995220N15256 1995 44 EP MM FLOSSIE 1995-08-08 15:00:00 TS 16.3925 -106.158 main 346 331 P_____________ EP071995 16.3925 -106.158 TD 32 997 -1 5 324
1995220N15256 1995 44 EP MM FLOSSIE 1995-08-08 18:00:00 TS 16.6000 -106.300 35 997 hurdat_epa main 331 317 O_____________ hurdat_epa EP071995 16.6000 -106.300 TS 35 997 0 5 333
1995220N15256 1995 44 EP MM FLOSSIE 1995-08-08 21:00:00 TS 16.8425 -106.400 main 317 295 P_____________ EP071995 16.8425 -106.400 TS 37 995 0 5 339
1995220N15256 1995 44 EP MM FLOSSIE 1995-08-09 00:00:00 TS 17.1000 -106.500 40 994 hurdat_epa main 295 285 O_____________ hurdat_epa EP071995 17.1000 -106.500 TS 40 994 0 6 338
1995220N15256 1995 44 EP MM FLOSSIE 1995-08-09 03:00:00 TS 17.3574 -106.620 main 276 276 P_____________ EP071995 17.3574 -106.620 TS 45 992 0 6 330
1995220N15256 1995 44 EP MM FLOSSIE 1995-08-09 06:00:00 TS 17.6000 -106.800 50 991 hurdat_epa main 276 276 O_____________ hurdat_epa EP071995 17.6000 -106.800 TS 50 991 0 6 315
1995220N15256 1995 44 EP MM FLOSSIE 1995-08-09 09:00:00 TS 17.8001 -107.085 main 284 283 P_____________ EP071995 17.8001 -107.085 TS 52 989 0 7 305
1995220N15256 1995 44 EP MM FLOSSIE 1995-08-09 12:00:00 TS 18.0000 -107.400 55 988 hurdat_epa main 291 291 O_____________ hurdat_epa EP071995 18.0000 -107.400 TS 55 988 0 7 309
1995220N15256 1995 44 EP MM FLOSSIE 1995-08-09 15:00:00 TS 18.2349 -107.658 main 303 296 P_____________ EP071995 18.2349 -107.658 TS 57 986 0 7 316
1995220N15256 1995 44 EP MM FLOSSIE 1995-08-09 18:00:00 TS 18.5000 -107.900 60 985 hurdat_epa main 302 299 O_____________ hurdat_epa EP071995 18.5000 -107.900 TS 60 985 0 7 320
1995220N15256 1995 44 EP MM FLOSSIE 1995-08-09 21:00:00 TS 18.8075 -108.157 main 313 308 P_____________ EP071995 18.8075 -108.157 TS 60 984 0 8 322
1995220N15256 1995 44 EP MM FLOSSIE 1995-08-10 00:00:00 TS 19.1000 -108.400 60 983 hurdat_epa main 317 312 O_____________ hurdat_epa EP071995 19.1000 -108.400 TS 60 983 0 7 320
1995220N15256 1995 44 EP MM FLOSSIE 1995-08-10 03:00:00 TS 19.3074 -108.600 main 327 327 P_____________ EP071995 19.3074 -108.600 TS 62 981 0 6 317
1995220N15256 1995 44 EP MM FLOSSIE 1995-08-10 06:00:00 TS 19.5000 -108.800 65 980 hurdat_epa main 339 339 O_____________ hurdat_epa EP071995 19.5000 -108.800 HU 65 980 1 6 316
1995220N15256 1995 44 EP MM FLOSSIE 1995-08-10 09:00:00 TS 19.7425 -109.050 main 353 328 P_____________ EP071995 19.7425 -109.050 HU 67 979 1 7 317
1995220N15256 1995 44 EP MM FLOSSIE 1995-08-10 12:00:00 TS 20.0000 -109.300 70 979 hurdat_epa main 328 303 O_____________ hurdat_epa EP071995 20.0000 -109.300 HU 70 979 1 6 319
1995220N15256 1995 44 EP MM FLOSSIE 1995-08-10 15:00:00 TS 20.2274 -109.493 main 303 268 P_____________ EP071995 20.2274 -109.493 HU 70 978 1 6 323
1995220N15256 1995 44 EP MM FLOSSIE 1995-08-10 18:00:00 TS 20.5000 -109.700 70 978 hurdat_epa main 268 223 O_____________ hurdat_epa EP071995 20.5000 -109.700 HU 70 978 1 8 325
1995220N15256 1995 44 EP MM FLOSSIE 1995-08-10 21:00:00 TS 20.8775 -109.978 main 223 181 P_____________ EP071995 20.8775 -109.978 HU 70 978 1 10 325
1995220N15256 1995 44 EP MM FLOSSIE 1995-08-11 00:00:00 TS 21.3000 -110.300 70 979 hurdat_epa main 181 147 O_____________ hurdat_epa EP071995 21.3000 -110.300 HU 70 979 1 10 324
1995220N15256 1995 44 EP MM FLOSSIE 1995-08-11 03:00:00 TS 21.6998 -110.620 main 147 136 P_____________ EP071995 21.6998 -110.620 HU 70 979 1 10 321
1995220N15256 1995 44 EP MM FLOSSIE 1995-08-11 06:00:00 TS 22.1000 -111.000 70 980 hurdat_epa main 136 136 O_____________ hurdat_epa EP071995 22.1000 -111.000 HU 70 980 1 11 316
1995220N15256 1995 44 EP MM FLOSSIE 1995-08-11 09:00:00 TS 22.5149 -111.463 main 160 153 P_____________ EP071995 22.5149 -111.463 HU 67 981 1 12 311
1995220N15256 1995 44 EP MM FLOSSIE 1995-08-11 12:00:00 TS 22.9000 -112.000 65 982 hurdat_epa main 162 159 O_____________ hurdat_epa EP071995 22.9000 -112.000 HU 65 982 1 13 304
1995220N15256 1995 44 EP MM FLOSSIE 1995-08-11 15:00:00 TS 23.2225 -112.593 main 166 162 P_____________ EP071995 23.2225 -112.593 HU 65 982 1 13 299
1995220N15256 1995 44 EP MM FLOSSIE 1995-08-11 18:00:00 TS 23.5000 -113.200 65 983 hurdat_epa main 174 172 O_____________ hurdat_epa EP071995 23.5000 -113.200 HU 65 983 1 12 297
1995220N15256 1995 44 EP MM FLOSSIE 1995-08-11 21:00:00 TS 23.7801 -113.795 main 196 196 P_____________ EP071995 23.7801 -113.795 HU 65 983 1 11 296
1995220N15256 1995 44 EP MM FLOSSIE 1995-08-12 00:00:00 TS 24.0000 -114.300 65 984 hurdat_epa main 230 230 O_____________ hurdat_epa EP071995 24.0000 -114.300 HU 65 984 1 8 294
1995220N15256 1995 44 EP MM FLOSSIE 1995-08-12 03:00:00 TS 24.1146 -114.623 main 255 255 P_____________ EP071995 24.1146 -114.623 HU 62 985 0 6 290
1995220N15256 1995 44 EP MM FLOSSIE 1995-08-12 06:00:00 TS 24.2000 -114.900 60 987 hurdat_epa main 281 281 O_____________ hurdat_epa EP071995 24.2000 -114.900 TS 60 987 0 6 291
1995220N15256 1995 44 EP MM FLOSSIE 1995-08-12 09:00:00 TS 24.3500 -115.285 main 308 308 P_____________ EP071995 24.3500 -115.285 TS 60 988 0 8 292
1995220N15256 1995 44 EP MM FLOSSIE 1995-08-12 12:00:00 TS 24.5000 -115.700 60 990 hurdat_epa main 323 323 O_____________ hurdat_epa EP071995 24.5000 -115.700 TS 60 990 0 8 290
1995220N15256 1995 44 EP MM FLOSSIE 1995-08-12 15:00:00 TS 24.6224 -116.107 main 336 332 P_____________ EP071995 24.6224 -116.107 TS 57 992 0 8 285
1995220N15256 1995 44 EP MM FLOSSIE 1995-08-12 18:00:00 TS 24.7000 -116.500 55 994 hurdat_epa main 349 349 O_____________ hurdat_epa EP071995 24.7000 -116.500 TS 55 994 0 7 278
1995220N15256 1995 44 EP MM FLOSSIE 1995-08-12 21:00:00 TS 24.7148 -116.850 main 374 374 P_____________ EP071995 24.7148 -116.850 TS 47 995 0 6 270
1995220N15256 1995 44 EP MM FLOSSIE 1995-08-13 00:00:00 TS 24.7000 -117.200 40 997 hurdat_epa main 395 395 O_____________ hurdat_epa EP071995 24.7000 -117.200 TS 40 997 0 7 269
1995220N15256 1995 44 EP MM FLOSSIE 1995-08-13 03:00:00 TS 24.7001 -117.623 main 423 423 P_____________ EP071995 24.7001 -117.623 TS 35 998 0 7 270
1995220N15256 1995 44 EP MM FLOSSIE 1995-08-13 06:00:00 TS 24.7000 -118.000 30 1000 hurdat_epa main 449 449 O_____________ hurdat_epa EP071995 24.7000 -118.000 TD 30 1000 -1 6 270
1995220N15256 1995 44 EP MM FLOSSIE 1995-08-13 09:00:00 TS 24.6998 -118.230 main 462 462 P_____________ EP071995 24.6998 -118.230 TD 30 1001 -1 4 270
1995220N15256 1995 44 EP MM FLOSSIE 1995-08-13 12:00:00 TS 24.7000 -118.400 30 1002 hurdat_epa main 476 476 O_____________ hurdat_epa EP071995 24.7000 -118.400 TD 30 1002 -1 3 270
1995220N15256 1995 44 EP MM FLOSSIE 1995-08-13 15:00:00 TS 24.7000 -118.600 main 490 490 P_____________ EP071995 24.7000 -118.600 TD 27 1003 -1 4 270
1995220N15256 1995 44 EP MM FLOSSIE 1995-08-13 18:00:00 TS 24.7000 -118.800 25 1004 hurdat_epa main 505 505 O_____________ hurdat_epa EP071995 24.7000 -118.800 TD 25 1004 -1 4 270
1995220N15256 1995 44 EP MM FLOSSIE 1995-08-13 21:00:00 TS 24.7001 -119.000 main 520 520 P_____________ EP071995 24.7001 -119.000 TD 25 1005 -1 4 270
1995220N15256 1995 44 EP MM FLOSSIE 1995-08-14 00:00:00 TS 24.7000 -119.200 25 1006 hurdat_epa main 536 O_____________ hurdat_epa EP071995 24.7000 -119.200 TD 25 1006 -1 4 270

About IBTrACS Database

This database is a web-friendly format of International Best Track Archive for Climate Stewardship (IBTrACS), a global best track data archive curated by NOAA dating back to 1842.

Updated: 2021-10-21